createdAt,value
2023-02-19T00:01:19.206Z,10.33
2023-02-19T00:03:54.807Z,10.41
2023-02-19T00:06:23.069Z,10.33
2023-02-19T00:08:50.183Z,10.36
2023-02-19T00:11:20.144Z,10.33
2023-02-19T00:13:49.616Z,10.44
2023-02-19T00:16:34.118Z,10.46
2023-02-19T00:19:03.275Z,10.50
2023-02-19T00:21:30.537Z,10.24
2023-02-19T00:24:00.230Z,10.21
2023-02-19T00:26:27.381Z,10.25
2023-02-19T00:28:55.666Z,10.27
2023-02-19T00:31:25.814Z,10.44
2023-02-19T00:33:58.205Z,10.51
2023-02-19T00:36:25.913Z,10.39
2023-02-19T00:38:53.042Z,10.43
2023-02-19T00:41:21.510Z,10.37
2023-02-19T00:43:54.104Z,10.40
2023-02-19T00:46:31.858Z,10.38
2023-02-19T00:48:59.115Z,10.37
2023-02-19T00:51:29.198Z,10.35
2023-02-19T00:53:56.233Z,10.18
2023-02-19T00:56:22.960Z,10.18
2023-02-19T00:58:50.477Z,10.21
2023-02-19T01:01:18.303Z,10.17
2023-02-19T01:03:45.038Z,10.33
2023-02-19T01:06:14.526Z,10.17
2023-02-19T01:08:41.556Z,9.99
2023-02-19T01:11:10.663Z,9.93
2023-02-19T01:13:37.946Z,9.91
2023-02-19T01:16:11.726Z,10.02
2023-02-19T01:18:38.916Z,9.95
2023-02-19T01:21:17.330Z,9.87
2023-02-19T01:23:44.399Z,9.88
2023-02-19T01:26:15.133Z,9.83
2023-02-19T01:28:42.093Z,9.76
2023-02-19T01:31:12.939Z,9.73
2023-02-19T01:33:39.976Z,9.72
2023-02-19T01:36:07.878Z,9.82
2023-02-19T01:38:34.497Z,9.69
2023-02-19T01:41:04.127Z,9.66
2023-02-19T01:43:35.815Z,9.62
2023-02-19T01:46:02.637Z,9.67
2023-02-19T01:48:39.968Z,9.63
2023-02-19T01:51:11.329Z,9.56
2023-02-19T01:53:43.517Z,9.51
2023-02-19T01:56:12.205Z,9.50
2023-02-19T01:58:39.790Z,9.47
2023-02-19T02:01:08.953Z,9.31
2023-02-19T02:03:38.199Z,9.33
2023-02-19T02:06:24.227Z,9.27
2023-02-19T02:09:15.271Z,9.24
2023-02-19T02:11:47.375Z,9.29
2023-02-19T02:14:15.012Z,9.38
2023-02-19T02:17:14.994Z,9.34
2023-02-19T02:20:17.959Z,9.37
2023-02-19T02:23:13.634Z,9.36
2023-02-19T02:26:13.907Z,9.01
2023-02-19T02:29:35.770Z,9.02
2023-02-19T02:32:25.454Z,8.97
2023-02-19T02:34:56.530Z,8.90
2023-02-19T02:37:25.490Z,8.88
2023-02-19T02:39:53.782Z,8.68
2023-02-19T02:42:29.826Z,8.68
2023-02-19T02:45:16.813Z,8.81
2023-02-19T02:47:50.838Z,8.75
2023-02-19T02:50:25.896Z,8.79
2023-02-19T02:53:18.007Z,8.73
2023-02-19T02:55:47.343Z,8.68
2023-02-19T02:58:15.882Z,8.55
2023-02-19T03:01:04.561Z,8.51
2023-02-19T03:03:32.665Z,8.28
2023-02-19T03:06:06.810Z,8.38
2023-02-19T03:08:40.657Z,8.39
2023-02-19T03:11:30.824Z,8.44
2023-02-19T03:14:46.075Z,8.01
2023-02-19T03:17:37.202Z,8.04
2023-02-19T03:20:10.671Z,8.30
2023-02-19T03:22:40.046Z,8.28
2023-02-19T03:25:45.658Z,8.30
2023-02-19T03:28:17.543Z,8.21
2023-02-19T03:30:48.186Z,8.36
2023-02-19T03:33:22.715Z,8.34
2023-02-19T03:36:06.529Z,8.44
2023-02-19T03:38:57.430Z,8.53
2023-02-19T03:41:39.229Z,8.49
2023-02-19T03:44:36.002Z,8.54
2023-02-19T03:47:17.795Z,8.46
2023-02-19T03:49:48.894Z,8.44
2023-02-19T03:52:36.865Z,8.49
2023-02-19T03:55:07.007Z,8.55
2023-02-19T03:57:39.082Z,8.76
2023-02-19T04:00:21.847Z,8.62
2023-02-19T04:02:48.435Z,8.62
2023-02-19T04:05:19.695Z,8.62
2023-02-19T04:07:50.386Z,8.51
2023-02-19T04:10:18.878Z,8.43
2023-02-19T04:12:54.241Z,8.26
2023-02-19T04:15:27.794Z,8.13
2023-02-19T04:18:19.501Z,8.16
2023-02-19T04:20:47.711Z,8.26
2023-02-19T04:23:18.439Z,8.18
2023-02-19T04:25:49.899Z,8.13
2023-02-19T04:28:18.392Z,7.92
2023-02-19T04:30:45.473Z,7.89
2023-02-19T04:33:12.194Z,7.93
2023-02-19T04:35:38.989Z,7.85
2023-02-19T04:38:05.743Z,7.87
2023-02-19T04:40:32.481Z,7.85
2023-02-19T04:42:59.150Z,7.97
2023-02-19T04:45:25.856Z,8.02
2023-02-19T04:47:52.528Z,8.02
2023-02-19T04:50:19.285Z,8.14
2023-02-19T04:52:45.950Z,8.24
2023-02-19T04:55:12.675Z,8.18
2023-02-19T04:57:39.358Z,8.07
2023-02-19T05:00:06.889Z,8.09
2023-02-19T05:02:33.716Z,8.14
2023-02-19T05:05:00.357Z,8.07
2023-02-19T05:07:27.027Z,7.99
2023-02-19T05:09:53.746Z,8.19
2023-02-19T05:12:20.733Z,8.20
2023-02-19T05:14:47.385Z,8.13
2023-02-19T05:17:14.067Z,8.11
2023-02-19T05:19:40.731Z,8.09
2023-02-19T05:22:07.412Z,7.93
2023-02-19T05:24:34.151Z,8.03
2023-02-19T05:27:00.798Z,7.80
2023-02-19T05:29:27.493Z,7.99
2023-02-19T05:31:54.376Z,8.05
2023-02-19T05:34:21.132Z,8.15
2023-02-19T05:36:47.820Z,8.17
2023-02-19T05:39:14.648Z,8.15
2023-02-19T05:41:41.466Z,8.21
2023-02-19T05:44:10.620Z,8.30
2023-02-19T05:46:37.366Z,8.24
2023-02-19T05:49:04.361Z,8.16
2023-02-19T05:51:31.079Z,8.20
2023-02-19T05:53:58.051Z,8.14
2023-02-19T05:56:36.905Z,8.17
2023-02-19T05:59:25.501Z,8.34
2023-02-19T06:01:54.561Z,8.08
2023-02-19T06:04:21.469Z,8.23
2023-02-19T06:06:48.709Z,8.27
2023-02-19T06:09:15.370Z,8.44
2023-02-19T06:11:43.450Z,8.46
2023-02-19T06:14:12.744Z,8.51
2023-02-19T06:16:39.649Z,8.67
2023-02-19T06:19:06.312Z,8.58
2023-02-19T06:21:33.152Z,8.31
2023-02-19T06:24:04.675Z,8.22
2023-02-19T06:26:31.336Z,8.52
2023-02-19T06:28:58.035Z,9.03
2023-02-19T06:31:24.810Z,9.32
2023-02-19T06:33:51.550Z,9.54
2023-02-19T06:36:21.155Z,9.31
2023-02-19T06:38:48.140Z,9.16
2023-02-19T06:41:14.902Z,9.50
2023-02-19T06:43:41.829Z,9.80
2023-02-19T06:46:08.818Z,10.05
2023-02-19T06:48:35.885Z,10.12
2023-02-19T06:51:03.469Z,9.89
2023-02-19T06:53:30.419Z,9.80
2023-02-19T06:56:02.744Z,9.75
2023-02-19T06:58:29.599Z,9.99
2023-02-19T07:00:56.662Z,10.63
2023-02-19T07:03:23.812Z,10.93
2023-02-19T07:05:50.744Z,11.45
2023-02-19T07:08:18.072Z,11.52
2023-02-19T07:10:45.656Z,11.24
2023-02-19T07:13:12.505Z,11.05
2023-02-19T07:15:39.303Z,11.15
2023-02-19T07:18:10.344Z,11.38
2023-02-19T07:20:37.411Z,11.62
2023-02-19T07:23:04.290Z,11.77
2023-02-19T07:25:31.030Z,11.89
2023-02-19T07:27:57.778Z,12.45
2023-02-19T07:30:24.500Z,12.98
2023-02-19T07:32:52.869Z,12.92
2023-02-19T07:35:19.566Z,13.24
2023-02-19T07:37:46.250Z,13.50
2023-02-19T07:40:13.103Z,13.88
2023-02-19T07:42:39.953Z,13.62
2023-02-19T07:45:06.968Z,13.73
2023-02-19T07:47:33.631Z,14.08
2023-02-19T07:50:00.296Z,13.66
2023-02-19T07:52:27.457Z,14.14
2023-02-19T07:54:54.170Z,14.40
2023-02-19T07:57:20.845Z,14.98
2023-02-19T07:59:47.559Z,14.85
2023-02-19T08:02:37.806Z,14.93
2023-02-19T08:05:06.249Z,15.03
2023-02-19T08:07:34.598Z,15.31
2023-02-19T08:10:20.512Z,14.96
2023-02-19T08:13:14.098Z,15.22
2023-02-19T08:15:40.813Z,15.10
2023-02-19T08:18:08.544Z,15.16
2023-02-19T08:20:35.540Z,15.15
2023-02-19T08:23:02.279Z,15.19
2023-02-19T08:25:29.486Z,15.65
2023-02-19T08:27:56.455Z,15.50
2023-02-19T08:30:23.258Z,15.60
2023-02-19T08:32:50.235Z,15.96
2023-02-19T08:35:16.918Z,16.62
2023-02-19T08:37:43.739Z,16.83
2023-02-19T08:40:11.110Z,16.36
2023-02-19T08:42:38.003Z,17.13
2023-02-19T08:45:05.477Z,17.24
2023-02-19T08:47:34.505Z,17.69
2023-02-19T08:50:01.487Z,17.82
2023-02-19T08:52:28.341Z,17.92
2023-02-19T08:54:55.142Z,17.80
2023-02-19T08:57:22.184Z,18.00
2023-02-19T08:59:48.935Z,17.45
2023-02-19T09:02:15.625Z,17.65
2023-02-19T09:04:42.370Z,18.20
2023-02-19T09:07:11.184Z,18.26
2023-02-19T09:09:38.429Z,18.31
2023-02-19T09:12:06.518Z,18.80
2023-02-19T09:14:34.635Z,18.76
2023-02-19T09:17:02.861Z,18.89
2023-02-19T09:19:29.727Z,18.98
2023-02-19T09:21:56.747Z,19.03
2023-02-19T09:24:24.601Z,19.38
2023-02-19T09:26:53.857Z,19.85
2023-02-19T09:29:25.394Z,19.95
2023-02-19T09:31:55.659Z,20.47
2023-02-19T09:34:22.423Z,19.28
2023-02-19T09:36:50.603Z,20.33
2023-02-19T09:39:17.333Z,20.47
2023-02-19T09:41:46.697Z,20.03
2023-02-19T09:44:48.468Z,20.27
2023-02-19T09:47:24.628Z,19.94
2023-02-19T09:49:56.453Z,20.34
2023-02-19T09:52:47.755Z,21.08
2023-02-19T09:55:31.358Z,21.29
2023-02-19T09:58:00.786Z,21.40
2023-02-19T10:00:32.628Z,21.93
2023-02-19T10:03:14.870Z,22.62
2023-02-19T10:05:42.139Z,22.11
2023-02-19T10:08:18.184Z,21.81
2023-02-19T10:10:45.653Z,22.23
2023-02-19T10:13:19.757Z,22.06
2023-02-19T10:15:54.690Z,22.37
2023-02-19T10:18:25.211Z,23.33
2023-02-19T10:20:53.288Z,23.74
2023-02-19T10:23:20.399Z,23.95
2023-02-19T10:25:51.656Z,24.12
2023-02-19T10:28:20.443Z,24.25
2023-02-19T10:30:54.948Z,23.71
2023-02-19T10:33:22.214Z,23.56
2023-02-19T10:36:02.260Z,23.66
2023-02-19T10:38:48.183Z,23.32
2023-02-19T10:41:17.930Z,23.77
2023-02-19T10:43:53.829Z,23.27
2023-02-19T10:46:25.609Z,23.20
2023-02-19T10:48:58.706Z,23.62
2023-02-19T10:51:44.699Z,24.08
2023-02-19T10:54:32.705Z,24.48
2023-02-19T10:57:18.261Z,24.38
2023-02-19T10:59:53.413Z,24.13
2023-02-19T11:02:21.671Z,23.86
2023-02-19T11:05:09.780Z,23.75
2023-02-19T11:07:38.339Z,24.81
2023-02-19T11:10:07.237Z,25.07
2023-02-19T11:12:35.293Z,24.67
2023-02-19T11:15:19.817Z,24.38
2023-02-19T11:17:54.854Z,24.02
2023-02-19T11:20:22.673Z,24.11
2023-02-19T11:22:49.919Z,24.15
2023-02-19T11:25:17.184Z,24.01
2023-02-19T11:28:07.322Z,24.07
2023-02-19T11:30:36.857Z,24.12
2023-02-19T11:33:22.086Z,24.23
2023-02-19T11:35:52.710Z,24.63
2023-02-19T11:38:20.377Z,24.50
2023-02-19T11:41:19.023Z,24.38
2023-02-19T11:44:19.503Z,24.72
2023-02-19T11:47:27.779Z,24.38
2023-02-19T11:50:06.175Z,23.61
2023-02-19T11:53:02.846Z,23.80
2023-02-19T11:55:56.598Z,24.42
2023-02-19T11:58:47.968Z,24.45
2023-02-19T12:01:23.546Z,24.13
2023-02-19T12:04:08.832Z,24.15
2023-02-19T12:06:50.954Z,24.32
2023-02-19T12:09:23.495Z,24.17
2023-02-19T12:12:21.726Z,25.20
2023-02-19T12:15:04.998Z,24.61
2023-02-19T12:17:46.453Z,23.68
2023-02-19T12:20:37.641Z,24.22
2023-02-19T12:23:29.184Z,24.14
2023-02-19T12:26:22.278Z,23.53
2023-02-19T12:28:49.051Z,23.62
2023-02-19T12:31:15.827Z,23.13
2023-02-19T12:34:16.358Z,23.06
2023-02-19T12:36:46.688Z,22.85
2023-02-19T12:39:34.783Z,22.72
2023-02-19T12:42:43.827Z,22.47
2023-02-19T12:45:30.097Z,22.12
2023-02-19T12:48:05.286Z,22.05
2023-02-19T12:50:35.358Z,22.17
2023-02-19T12:53:10.102Z,22.44
2023-02-19T12:55:41.550Z,22.55
2023-02-19T12:58:14.693Z,22.95
2023-02-19T13:00:56.680Z,22.52
2023-02-19T13:03:34.814Z,22.44
2023-02-19T13:06:09.702Z,22.80
2023-02-19T13:09:05.455Z,22.65
2023-02-19T13:11:55.663Z,22.93
2023-02-19T13:14:34.539Z,22.65
2023-02-19T13:17:13.338Z,22.14
2023-02-19T13:19:40.022Z,22.85
2023-02-19T13:22:39.138Z,22.91
2023-02-19T13:25:07.818Z,23.10
2023-02-19T13:27:52.269Z,23.16
2023-02-19T13:30:52.395Z,22.86
2023-02-19T13:34:09.925Z,23.11
2023-02-19T13:36:37.680Z,22.16
2023-02-19T13:39:08.142Z,21.92
2023-02-19T13:41:51.481Z,21.64
2023-02-19T13:44:40.265Z,21.64
2023-02-19T13:47:45.590Z,21.63
2023-02-19T13:50:23.879Z,21.41
2023-02-19T13:52:53.476Z,21.15
2023-02-19T13:55:46.800Z,21.03
2023-02-19T13:58:39.766Z,20.76
2023-02-19T14:01:11.790Z,20.56
2023-02-19T14:03:54.230Z,20.73
2023-02-19T14:06:21.474Z,20.46
2023-02-19T14:09:00.347Z,20.46
2023-02-19T14:11:42.367Z,20.46
2023-02-19T14:14:26.634Z,20.67
2023-02-19T14:17:20.974Z,20.27
2023-02-19T14:19:53.873Z,20.41
2023-02-19T14:22:45.565Z,20.33
2023-02-19T14:25:27.701Z,20.47
2023-02-19T14:27:55.860Z,20.42
2023-02-19T14:30:23.983Z,20.30
2023-02-19T14:33:02.790Z,20.08
2023-02-19T14:35:47.424Z,20.18
2023-02-19T14:38:28.483Z,20.10
2023-02-19T14:40:55.970Z,20.31
2023-02-19T14:43:25.230Z,20.23
2023-02-19T14:46:04.527Z,20.24
2023-02-19T14:48:39.741Z,20.14
2023-02-19T14:51:13.984Z,19.99
2023-02-19T14:53:44.879Z,19.66
2023-02-19T14:56:23.337Z,19.82
2023-02-19T14:59:22.320Z,19.72
2023-02-19T15:02:03.955Z,19.53
2023-02-19T15:04:36.769Z,19.52
2023-02-19T15:07:08.425Z,19.37
2023-02-19T15:09:44.249Z,19.31
2023-02-19T15:12:46.116Z,19.17
2023-02-19T15:15:21.129Z,19.20
2023-02-19T15:17:48.420Z,19.15
2023-02-19T15:20:19.776Z,19.06
2023-02-19T15:22:46.813Z,19.26
2023-02-19T15:25:19.477Z,19.10
2023-02-19T15:27:46.345Z,19.02
2023-02-19T15:30:29.598Z,19.03
2023-02-19T15:32:59.181Z,18.81
2023-02-19T15:35:28.983Z,18.98
2023-02-19T15:37:56.377Z,18.70
2023-02-19T15:40:30.328Z,18.43
2023-02-19T15:42:59.088Z,18.45
2023-02-19T15:45:35.459Z,18.19
2023-02-19T15:48:10.626Z,17.98
2023-02-19T15:50:44.237Z,17.98
2023-02-19T15:53:21.724Z,17.79
2023-02-19T15:55:54.112Z,17.75
2023-02-19T15:58:32.666Z,17.68
2023-02-19T16:01:14.886Z,17.67
2023-02-19T16:03:42.275Z,17.67
2023-02-19T16:06:16.778Z,17.71
2023-02-19T16:09:03.689Z,17.75
2023-02-19T16:11:47.056Z,17.78
2023-02-19T16:14:22.608Z,17.99
2023-02-19T16:16:56.304Z,18.02
2023-02-19T16:19:41.735Z,17.77
2023-02-19T16:22:11.491Z,17.60
2023-02-19T16:24:45.279Z,17.53
2023-02-19T16:27:14.242Z,17.09
2023-02-19T16:29:41.333Z,17.59
2023-02-19T16:32:16.955Z,17.48
2023-02-19T16:34:51.010Z,17.53
2023-02-19T16:37:40.915Z,17.54
2023-02-19T16:40:07.613Z,17.25
2023-02-19T16:42:49.414Z,17.28
2023-02-19T16:45:16.745Z,17.47
2023-02-19T16:47:48.560Z,17.44
2023-02-19T16:50:24.380Z,17.16
2023-02-19T16:52:54.984Z,17.25
2023-02-19T16:55:22.297Z,17.14
2023-02-19T16:57:49.581Z,17.26
2023-02-19T17:00:20.660Z,17.41
2023-02-19T17:02:49.276Z,17.46
2023-02-19T17:05:17.057Z,17.30
2023-02-19T17:07:43.707Z,17.39
2023-02-19T17:10:17.215Z,17.38
2023-02-19T17:12:43.870Z,17.28
2023-02-19T17:15:12.025Z,17.18
2023-02-19T17:17:39.572Z,17.12
2023-02-19T17:20:29.467Z,16.67
2023-02-19T17:22:56.942Z,16.67
2023-02-19T17:25:23.976Z,16.65
2023-02-19T17:27:50.654Z,16.71
2023-02-19T17:30:28.526Z,16.89
2023-02-19T17:32:55.392Z,16.60
2023-02-19T17:35:22.244Z,16.58
2023-02-19T17:37:49.085Z,16.52
2023-02-19T17:40:32.107Z,16.35
2023-02-19T17:42:59.759Z,16.39
2023-02-19T17:45:26.469Z,16.43
2023-02-19T17:47:53.298Z,16.53
2023-02-19T17:50:23.377Z,16.36
2023-02-19T17:52:50.118Z,16.14
2023-02-19T17:55:18.518Z,16.05
2023-02-19T17:57:46.483Z,16.04
2023-02-19T18:00:17.582Z,15.92
2023-02-19T18:02:44.227Z,15.97
2023-02-19T18:05:11.058Z,16.03
2023-02-19T18:07:38.667Z,16.04
2023-02-19T18:10:06.660Z,15.39
2023-02-19T18:12:33.324Z,15.37
2023-02-19T18:15:00.233Z,14.95
2023-02-19T18:17:27.132Z,14.13
2023-02-19T18:19:54.643Z,14.27
2023-02-19T18:22:21.479Z,14.37
2023-02-19T18:24:52.487Z,14.41
2023-02-19T18:27:20.481Z,14.44
2023-02-19T18:29:51.951Z,14.60
2023-02-19T18:32:19.968Z,14.70
2023-02-19T18:34:55.489Z,14.80
2023-02-19T18:37:24.324Z,14.75
2023-02-19T18:39:52.227Z,14.82
2023-02-19T18:42:19.294Z,14.92
2023-02-19T18:44:50.466Z,14.84
2023-02-19T18:47:18.098Z,14.63
2023-02-19T18:49:52.238Z,14.34
2023-02-19T18:52:20.447Z,14.45
2023-02-19T18:54:48.418Z,14.64
2023-02-19T18:57:15.671Z,14.60
2023-02-19T18:59:43.032Z,14.45
2023-02-19T19:02:10.442Z,14.33
2023-02-19T19:04:38.774Z,14.23
2023-02-19T19:07:06.572Z,14.01
2023-02-19T19:09:34.256Z,13.94
2023-02-19T19:12:01.419Z,13.94
2023-02-19T19:14:28.289Z,13.98
2023-02-19T19:16:55.007Z,14.15
2023-02-19T19:19:21.823Z,14.09
2023-02-19T19:21:53.477Z,14.00
2023-02-19T19:24:21.524Z,13.95
2023-02-19T19:26:51.322Z,13.76
2023-02-19T19:29:20.515Z,13.63
2023-02-19T19:31:47.398Z,13.59
2023-02-19T19:34:15.195Z,13.48
2023-02-19T19:36:41.908Z,13.47
2023-02-19T19:39:09.286Z,13.62
2023-02-19T19:41:36.253Z,13.53
2023-02-19T19:44:05.080Z,13.74
2023-02-19T19:46:32.552Z,13.68
2023-02-19T19:48:59.732Z,13.72
2023-02-19T19:51:33.979Z,13.85
2023-02-19T19:54:02.056Z,14.05
2023-02-19T19:56:28.762Z,13.90
2023-02-19T19:58:55.579Z,14.03
2023-02-19T20:01:23.300Z,14.26
2023-02-19T20:03:51.251Z,13.98
2023-02-19T20:06:33.415Z,13.80
2023-02-19T20:09:00.422Z,14.09
2023-02-19T20:11:27.259Z,14.19
2023-02-19T20:13:54.189Z,14.14
2023-02-19T20:16:26.282Z,13.99
2023-02-19T20:18:53.221Z,13.96
2023-02-19T20:21:20.124Z,13.64
2023-02-19T20:23:46.928Z,13.63
2023-02-19T20:26:14.834Z,13.46
2023-02-19T20:28:47.386Z,13.48
2023-02-19T20:31:14.466Z,13.71
2023-02-19T20:33:41.601Z,13.71
2023-02-19T20:36:08.787Z,13.79
2023-02-19T20:38:35.476Z,13.67
2023-02-19T20:41:02.745Z,13.60
2023-02-19T20:43:29.463Z,13.63
2023-02-19T20:45:56.158Z,13.67
2023-02-19T20:48:22.835Z,13.74
2023-02-19T20:50:49.918Z,13.86
2023-02-19T20:53:16.562Z,13.75
2023-02-19T20:55:43.228Z,13.73
2023-02-19T20:58:09.966Z,13.82
2023-02-19T21:00:36.667Z,13.74
2023-02-19T21:03:03.428Z,13.90
2023-02-19T21:05:30.135Z,13.98
2023-02-19T21:07:56.838Z,14.04
2023-02-19T21:10:24.321Z,14.13
2023-02-19T21:12:52.476Z,14.21
2023-02-19T21:15:26.241Z,14.15
2023-02-19T21:17:53.098Z,14.13
2023-02-19T21:20:20.143Z,14.09
2023-02-19T21:22:46.852Z,14.08
2023-02-19T21:25:13.580Z,14.02
2023-02-19T21:27:40.385Z,13.86
2023-02-19T21:30:07.903Z,13.89
2023-02-19T21:32:34.561Z,13.92
2023-02-19T21:35:01.210Z,13.86
2023-02-19T21:37:27.938Z,13.89
2023-02-19T21:39:55.714Z,13.88
2023-02-19T21:42:22.381Z,13.62
2023-02-19T21:44:49.111Z,13.92
2023-02-19T21:47:16.145Z,13.77
2023-02-19T21:49:43.248Z,13.66
2023-02-19T21:52:09.997Z,13.63
2023-02-19T21:54:36.698Z,13.66
2023-02-19T21:57:03.699Z,13.69
2023-02-19T21:59:30.379Z,13.61
2023-02-19T22:01:57.577Z,13.34
2023-02-19T22:04:24.678Z,13.33
2023-02-19T22:06:55.401Z,13.41
2023-02-19T22:09:22.118Z,13.52
2023-02-19T22:11:48.811Z,13.55
2023-02-19T22:14:15.510Z,13.46
2023-02-19T22:16:42.291Z,13.33
2023-02-19T22:19:12.110Z,13.37
2023-02-19T22:21:43.183Z,13.38
2023-02-19T22:24:18.699Z,13.42
2023-02-19T22:26:46.230Z,13.26
2023-02-19T22:29:15.060Z,13.24
2023-02-19T22:31:42.415Z,13.00
2023-02-19T22:34:09.603Z,13.01
2023-02-19T22:36:40.396Z,13.05
2023-02-19T22:39:09.438Z,12.62
2023-02-19T22:41:36.167Z,13.18
2023-02-19T22:44:02.890Z,13.13
2023-02-19T22:46:31.286Z,13.03
2023-02-19T22:48:58.820Z,13.07
2023-02-19T22:51:26.775Z,12.91
2023-02-19T22:53:56.259Z,12.99
2023-02-19T22:56:25.804Z,12.82
2023-02-19T22:58:54.045Z,12.75
2023-02-19T23:01:21.302Z,12.72
2023-02-19T23:03:58.838Z,12.87
2023-02-19T23:06:31.553Z,12.87
2023-02-19T23:09:02.619Z,12.97
2023-02-19T23:11:33.266Z,13.06
2023-02-19T23:14:00.001Z,12.98
2023-02-19T23:16:26.793Z,12.74
2023-02-19T23:18:53.702Z,13.04
2023-02-19T23:21:22.620Z,13.13
2023-02-19T23:23:49.428Z,13.04
2023-02-19T23:26:16.825Z,13.21
2023-02-19T23:28:43.947Z,12.99
2023-02-19T23:31:11.444Z,12.97
2023-02-19T23:33:38.920Z,12.89
2023-02-19T23:36:06.013Z,12.86
2023-02-19T23:38:32.743Z,12.82
2023-02-19T23:40:59.816Z,12.93
2023-02-19T23:43:26.631Z,12.86
2023-02-19T23:45:53.477Z,12.99
2023-02-19T23:48:20.385Z,12.95
2023-02-19T23:50:47.033Z,12.78
2023-02-19T23:53:13.727Z,12.85
2023-02-19T23:55:40.398Z,12.93
2023-02-19T23:58:07.123Z,12.92
